sensor_id;sensor_type;location;lat;lon;timestamp;P1;durP1;ratioP1;P2;durP2;ratioP2
16612;SDS011;8419;52.358;9.752;2023-02-28T00:01:42;5.30;;;3.47;;
16612;SDS011;8419;52.358;9.752;2023-02-28T00:04:27;5.93;;;3.07;;
16612;SDS011;8419;52.358;9.752;2023-02-28T00:07:13;6.77;;;3.23;;
16612;SDS011;8419;52.358;9.752;2023-02-28T00:09:58;7.60;;;3.03;;
16612;SDS011;8419;52.358;9.752;2023-02-28T00:12:44;4.00;;;3.17;;
16612;SDS011;8419;52.358;9.752;2023-02-28T00:15:29;7.60;;;3.57;;
16612;SDS011;8419;52.358;9.752;2023-02-28T00:18:16;4.27;;;3.03;;
16612;SDS011;8419;52.358;9.752;2023-02-28T00:21:01;6.40;;;3.23;;
16612;SDS011;8419;52.358;9.752;2023-02-28T00:23:47;5.70;;;3.47;;
16612;SDS011;8419;52.358;9.752;2023-02-28T00:26:33;5.73;;;2.77;;
16612;SDS011;8419;52.358;9.752;2023-02-28T00:29:19;3.93;;;3.03;;
16612;SDS011;8419;52.358;9.752;2023-02-28T00:32:04;5.70;;;3.30;;
16612;SDS011;8419;52.358;9.752;2023-02-28T00:34:50;4.63;;;2.90;;
16612;SDS011;8419;52.358;9.752;2023-02-28T00:37:35;5.87;;;3.23;;
16612;SDS011;8419;52.358;9.752;2023-02-28T00:40:20;9.03;;;3.13;;
16612;SDS011;8419;52.358;9.752;2023-02-28T00:43:06;4.07;;;2.77;;
16612;SDS011;8419;52.358;9.752;2023-02-28T00:45:51;4.53;;;2.93;;
16612;SDS011;8419;52.358;9.752;2023-02-28T00:48:37;6.30;;;3.10;;
16612;SDS011;8419;52.358;9.752;2023-02-28T00:51:22;5.40;;;3.37;;
16612;SDS011;8419;52.358;9.752;2023-02-28T00:54:08;4.43;;;3.03;;
16612;SDS011;8419;52.358;9.752;2023-02-28T00:56:53;6.97;;;3.50;;
16612;SDS011;8419;52.358;9.752;2023-02-28T00:59:38;3.50;;;2.90;;
16612;SDS011;8419;52.358;9.752;2023-02-28T01:02:25;5.47;;;3.27;;
16612;SDS011;8419;52.358;9.752;2023-02-28T01:05:11;4.17;;;2.70;;
16612;SDS011;8419;52.358;9.752;2023-02-28T01:07:56;7.57;;;3.37;;
16612;SDS011;8419;52.358;9.752;2023-02-28T01:10:42;5.17;;;3.27;;
16612;SDS011;8419;52.358;9.752;2023-02-28T01:13:27;4.70;;;3.33;;
16612;SDS011;8419;52.358;9.752;2023-02-28T01:16:13;6.20;;;3.07;;
16612;SDS011;8419;52.358;9.752;2023-02-28T01:19:00;6.87;;;3.10;;
16612;SDS011;8419;52.358;9.752;2023-02-28T01:21:45;5.20;;;3.37;;
16612;SDS011;8419;52.358;9.752;2023-02-28T01:24:31;7.20;;;4.13;;
16612;SDS011;8419;52.358;9.752;2023-02-28T01:27:17;11.67;;;3.90;;
16612;SDS011;8419;52.358;9.752;2023-02-28T01:30:03;7.20;;;3.57;;
16612;SDS011;8419;52.358;9.752;2023-02-28T01:32:50;6.03;;;3.00;;
16612;SDS011;8419;52.358;9.752;2023-02-28T01:35:37;6.37;;;3.47;;
16612;SDS011;8419;52.358;9.752;2023-02-28T01:38:22;8.10;;;3.20;;
16612;SDS011;8419;52.358;9.752;2023-02-28T01:41:10;6.10;;;3.40;;
16612;SDS011;8419;52.358;9.752;2023-02-28T01:44:02;6.43;;;4.07;;
16612;SDS011;8419;52.358;9.752;2023-02-28T01:46:49;7.83;;;3.60;;
16612;SDS011;8419;52.358;9.752;2023-02-28T01:49:34;5.80;;;3.53;;
16612;SDS011;8419;52.358;9.752;2023-02-28T01:52:21;6.53;;;3.70;;
16612;SDS011;8419;52.358;9.752;2023-02-28T01:55:09;6.37;;;3.20;;
16612;SDS011;8419;52.358;9.752;2023-02-28T01:57:57;4.57;;;3.70;;
16612;SDS011;8419;52.358;9.752;2023-02-28T02:00:45;7.63;;;3.23;;
16612;SDS011;8419;52.358;9.752;2023-02-28T02:03:30;6.10;;;3.50;;
16612;SDS011;8419;52.358;9.752;2023-02-28T02:06:16;6.27;;;3.70;;
16612;SDS011;8419;52.358;9.752;2023-02-28T02:09:04;8.90;;;3.60;;
16612;SDS011;8419;52.358;9.752;2023-02-28T02:11:50;4.80;;;3.30;;
16612;SDS011;8419;52.358;9.752;2023-02-28T02:14:39;4.67;;;3.37;;
16612;SDS011;8419;52.358;9.752;2023-02-28T02:17:38;4.70;;;3.60;;
16612;SDS011;8419;52.358;9.752;2023-02-28T02:20:38;8.33;;;3.20;;
16612;SDS011;8419;52.358;9.752;2023-02-28T02:27:39;10.60;;;3.90;;
16612;SDS011;8419;52.358;9.752;2023-02-28T02:34:32;4.77;;;3.37;;
16612;SDS011;8419;52.358;9.752;2023-02-28T02:37:29;5.50;;;3.30;;
16612;SDS011;8419;52.358;9.752;2023-02-28T02:40:21;9.50;;;3.67;;
16612;SDS011;8419;52.358;9.752;2023-02-28T02:43:13;5.00;;;3.40;;
16612;SDS011;8419;52.358;9.752;2023-02-28T02:46:04;6.23;;;3.10;;
16612;SDS011;8419;52.358;9.752;2023-02-28T02:48:55;8.17;;;4.03;;
16612;SDS011;8419;52.358;9.752;2023-02-28T02:51:44;6.47;;;3.70;;
16612;SDS011;8419;52.358;9.752;2023-02-28T02:54:33;6.90;;;3.43;;
16612;SDS011;8419;52.358;9.752;2023-02-28T02:57:23;6.43;;;3.30;;
16612;SDS011;8419;52.358;9.752;2023-02-28T03:00:12;6.77;;;3.97;;
16612;SDS011;8419;52.358;9.752;2023-02-28T03:03:00;4.37;;;3.20;;
16612;SDS011;8419;52.358;9.752;2023-02-28T03:05:47;6.40;;;4.17;;
16612;SDS011;8419;52.358;9.752;2023-02-28T03:08:35;9.80;;;4.30;;
16612;SDS011;8419;52.358;9.752;2023-02-28T03:11:22;5.00;;;3.30;;
16612;SDS011;8419;52.358;9.752;2023-02-28T03:17:40;7.80;;;3.90;;
16612;SDS011;8419;52.358;9.752;2023-02-28T03:20:36;7.50;;;3.43;;
16612;SDS011;8419;52.358;9.752;2023-02-28T03:23:30;3.97;;;3.00;;
16612;SDS011;8419;52.358;9.752;2023-02-28T03:26:24;5.47;;;3.50;;
16612;SDS011;8419;52.358;9.752;2023-02-28T03:29:13;5.23;;;3.50;;
16612;SDS011;8419;52.358;9.752;2023-02-28T03:32:08;6.10;;;3.60;;
16612;SDS011;8419;52.358;9.752;2023-02-28T03:35:08;5.67;;;3.40;;
16612;SDS011;8419;52.358;9.752;2023-02-28T03:38:00;6.17;;;3.50;;
16612;SDS011;8419;52.358;9.752;2023-02-28T03:40:51;6.73;;;4.07;;
16612;SDS011;8419;52.358;9.752;2023-02-28T03:43:46;5.77;;;3.53;;
16612;SDS011;8419;52.358;9.752;2023-02-28T03:46:36;6.23;;;3.47;;
16612;SDS011;8419;52.358;9.752;2023-02-28T03:49:27;5.10;;;3.50;;
16612;SDS011;8419;52.358;9.752;2023-02-28T03:52:16;10.20;;;3.77;;
16612;SDS011;8419;52.358;9.752;2023-02-28T03:55:07;5.77;;;3.63;;
16612;SDS011;8419;52.358;9.752;2023-02-28T03:57:56;4.73;;;3.10;;
16612;SDS011;8419;52.358;9.752;2023-02-28T04:00:47;7.00;;;4.13;;
16612;SDS011;8419;52.358;9.752;2023-02-28T04:03:37;6.20;;;3.30;;
16612;SDS011;8419;52.358;9.752;2023-02-28T04:06:24;6.87;;;3.20;;
16612;SDS011;8419;52.358;9.752;2023-02-28T04:09:11;10.77;;;4.03;;
16612;SDS011;8419;52.358;9.752;2023-02-28T04:11:58;7.23;;;4.10;;
16612;SDS011;8419;52.358;9.752;2023-02-28T04:14:43;8.90;;;3.97;;
16612;SDS011;8419;52.358;9.752;2023-02-28T04:17:29;6.60;;;3.53;;
16612;SDS011;8419;52.358;9.752;2023-02-28T04:20:14;6.03;;;4.13;;
16612;SDS011;8419;52.358;9.752;2023-02-28T04:22:59;6.43;;;3.50;;
16612;SDS011;8419;52.358;9.752;2023-02-28T04:25:44;6.13;;;3.87;;
16612;SDS011;8419;52.358;9.752;2023-02-28T04:28:30;5.17;;;3.67;;
16612;SDS011;8419;52.358;9.752;2023-02-28T04:31:16;7.20;;;3.70;;
16612;SDS011;8419;52.358;9.752;2023-02-28T04:34:01;6.93;;;4.13;;
16612;SDS011;8419;52.358;9.752;2023-02-28T04:36:47;5.57;;;3.43;;
16612;SDS011;8419;52.358;9.752;2023-02-28T04:39:35;6.23;;;4.13;;
16612;SDS011;8419;52.358;9.752;2023-02-28T04:42:22;5.40;;;3.70;;
16612;SDS011;8419;52.358;9.752;2023-02-28T04:45:09;6.07;;;4.03;;
16612;SDS011;8419;52.358;9.752;2023-02-28T04:47:55;6.53;;;4.03;;
16612;SDS011;8419;52.358;9.752;2023-02-28T04:50:40;6.53;;;4.10;;
16612;SDS011;8419;52.358;9.752;2023-02-28T04:53:25;5.80;;;3.80;;
16612;SDS011;8419;52.358;9.752;2023-02-28T04:56:13;6.50;;;4.13;;
16612;SDS011;8419;52.358;9.752;2023-02-28T04:59:00;7.37;;;4.23;;
16612;SDS011;8419;52.358;9.752;2023-02-28T05:01:46;5.07;;;3.77;;
16612;SDS011;8419;52.358;9.752;2023-02-28T05:04:33;7.57;;;3.97;;
16612;SDS011;8419;52.358;9.752;2023-02-28T05:07:19;10.40;;;4.23;;
16612;SDS011;8419;52.358;9.752;2023-02-28T05:10:05;6.57;;;3.93;;
16612;SDS011;8419;52.358;9.752;2023-02-28T05:12:51;7.90;;;3.67;;
16612;SDS011;8419;52.358;9.752;2023-02-28T05:15:37;8.43;;;3.93;;
16612;SDS011;8419;52.358;9.752;2023-02-28T05:18:23;5.20;;;3.67;;
16612;SDS011;8419;52.358;9.752;2023-02-28T05:21:17;7.47;;;4.27;;
16612;SDS011;8419;52.358;9.752;2023-02-28T05:24:09;5.67;;;3.53;;
16612;SDS011;8419;52.358;9.752;2023-02-28T05:26:56;5.87;;;3.70;;
16612;SDS011;8419;52.358;9.752;2023-02-28T05:29:42;5.77;;;3.70;;
16612;SDS011;8419;52.358;9.752;2023-02-28T05:32:28;4.73;;;3.50;;
16612;SDS011;8419;52.358;9.752;2023-02-28T05:35:13;7.97;;;4.17;;
16612;SDS011;8419;52.358;9.752;2023-02-28T05:37:59;5.83;;;3.83;;
16612;SDS011;8419;52.358;9.752;2023-02-28T05:40:44;7.03;;;3.93;;
16612;SDS011;8419;52.358;9.752;2023-02-28T05:43:30;8.47;;;4.10;;
16612;SDS011;8419;52.358;9.752;2023-02-28T05:46:15;9.50;;;4.33;;
16612;SDS011;8419;52.358;9.752;2023-02-28T05:49:01;9.60;;;4.20;;
16612;SDS011;8419;52.358;9.752;2023-02-28T05:51:47;7.90;;;4.50;;
16612;SDS011;8419;52.358;9.752;2023-02-28T05:54:33;5.77;;;4.03;;
16612;SDS011;8419;52.358;9.752;2023-02-28T05:57:19;7.77;;;3.83;;
16612;SDS011;8419;52.358;9.752;2023-02-28T06:00:06;6.23;;;4.50;;
16612;SDS011;8419;52.358;9.752;2023-02-28T06:02:55;7.37;;;4.37;;
16612;SDS011;8419;52.358;9.752;2023-02-28T06:05:44;7.47;;;4.30;;
16612;SDS011;8419;52.358;9.752;2023-02-28T06:08:29;6.67;;;3.60;;
16612;SDS011;8419;52.358;9.752;2023-02-28T06:11:15;7.23;;;4.30;;
16612;SDS011;8419;52.358;9.752;2023-02-28T06:14:01;7.53;;;4.10;;
16612;SDS011;8419;52.358;9.752;2023-02-28T06:16:48;8.23;;;4.00;;
16612;SDS011;8419;52.358;9.752;2023-02-28T06:19:33;10.60;;;4.70;;
16612;SDS011;8419;52.358;9.752;2023-02-28T06:22:22;6.13;;;4.40;;
16612;SDS011;8419;52.358;9.752;2023-02-28T06:25:09;9.33;;;4.93;;
16612;SDS011;8419;52.358;9.752;2023-02-28T06:27:55;8.33;;;4.83;;
16612;SDS011;8419;52.358;9.752;2023-02-28T06:30:41;7.17;;;4.67;;
16612;SDS011;8419;52.358;9.752;2023-02-28T06:33:26;6.70;;;4.20;;
16612;SDS011;8419;52.358;9.752;2023-02-28T06:36:12;8.20;;;4.87;;
16612;SDS011;8419;52.358;9.752;2023-02-28T06:38:59;6.10;;;4.67;;
16612;SDS011;8419;52.358;9.752;2023-02-28T06:41:44;6.57;;;4.70;;
16612;SDS011;8419;52.358;9.752;2023-02-28T06:44:31;6.47;;;4.57;;
16612;SDS011;8419;52.358;9.752;2023-02-28T06:47:21;9.37;;;5.33;;
16612;SDS011;8419;52.358;9.752;2023-02-28T06:50:08;6.40;;;4.80;;
16612;SDS011;8419;52.358;9.752;2023-02-28T06:52:56;7.27;;;4.63;;
16612;SDS011;8419;52.358;9.752;2023-02-28T06:55:41;9.80;;;4.73;;
16612;SDS011;8419;52.358;9.752;2023-02-28T06:58:27;6.77;;;4.83;;
16612;SDS011;8419;52.358;9.752;2023-02-28T07:01:13;6.63;;;4.33;;
16612;SDS011;8419;52.358;9.752;2023-02-28T07:03:59;8.50;;;4.60;;
16612;SDS011;8419;52.358;9.752;2023-02-28T07:06:45;8.43;;;4.90;;
16612;SDS011;8419;52.358;9.752;2023-02-28T07:09:31;8.10;;;5.57;;
16612;SDS011;8419;52.358;9.752;2023-02-28T07:12:16;10.13;;;5.27;;
16612;SDS011;8419;52.358;9.752;2023-02-28T07:15:02;10.30;;;5.20;;
16612;SDS011;8419;52.358;9.752;2023-02-28T07:17:54;9.03;;;4.87;;
16612;SDS011;8419;52.358;9.752;2023-02-28T07:20:40;8.07;;;5.03;;
16612;SDS011;8419;52.358;9.752;2023-02-28T07:23:27;14.57;;;5.47;;
16612;SDS011;8419;52.358;9.752;2023-02-28T07:26:16;7.90;;;5.13;;
16612;SDS011;8419;52.358;9.752;2023-02-28T07:29:04;9.73;;;5.30;;
16612;SDS011;8419;52.358;9.752;2023-02-28T07:31:50;7.20;;;4.63;;
16612;SDS011;8419;52.358;9.752;2023-02-28T07:34:37;9.03;;;4.80;;
16612;SDS011;8419;52.358;9.752;2023-02-28T07:37:23;6.97;;;5.00;;
16612;SDS011;8419;52.358;9.752;2023-02-28T07:40:10;8.43;;;4.93;;
16612;SDS011;8419;52.358;9.752;2023-02-28T07:42:57;10.33;;;4.73;;
16612;SDS011;8419;52.358;9.752;2023-02-28T07:45:44;7.57;;;4.37;;
16612;SDS011;8419;52.358;9.752;2023-02-28T07:48:29;8.20;;;4.53;;
16612;SDS011;8419;52.358;9.752;2023-02-28T07:51:16;6.70;;;3.57;;
16612;SDS011;8419;52.358;9.752;2023-02-28T07:54:02;7.70;;;4.23;;
16612;SDS011;8419;52.358;9.752;2023-02-28T07:56:48;5.57;;;3.60;;
16612;SDS011;8419;52.358;9.752;2023-02-28T07:59:34;7.60;;;3.70;;
16612;SDS011;8419;52.358;9.752;2023-02-28T08:02:20;4.57;;;3.50;;
16612;SDS011;8419;52.358;9.752;2023-02-28T08:05:06;6.80;;;4.30;;
16612;SDS011;8419;52.358;9.752;2023-02-28T08:07:52;6.93;;;4.40;;
16612;SDS011;8419;52.358;9.752;2023-02-28T08:10:37;10.20;;;4.43;;
16612;SDS011;8419;52.358;9.752;2023-02-28T08:13:23;7.10;;;3.77;;
16612;SDS011;8419;52.358;9.752;2023-02-28T08:16:09;6.40;;;3.87;;
16612;SDS011;8419;52.358;9.752;2023-02-28T08:18:54;6.87;;;3.53;;
16612;SDS011;8419;52.358;9.752;2023-02-28T08:21:39;6.20;;;3.23;;
16612;SDS011;8419;52.358;9.752;2023-02-28T08:24:25;7.47;;;3.50;;
16612;SDS011;8419;52.358;9.752;2023-02-28T08:27:11;10.67;;;3.47;;
16612;SDS011;8419;52.358;9.752;2023-02-28T08:29:57;6.53;;;3.20;;
16612;SDS011;8419;52.358;9.752;2023-02-28T08:32:42;8.43;;;3.37;;
16612;SDS011;8419;52.358;9.752;2023-02-28T08:35:27;7.63;;;3.03;;
16612;SDS011;8419;52.358;9.752;2023-02-28T08:38:13;4.70;;;3.20;;
16612;SDS011;8419;52.358;9.752;2023-02-28T08:40:59;4.70;;;2.93;;
16612;SDS011;8419;52.358;9.752;2023-02-28T08:43:47;5.20;;;3.00;;
16612;SDS011;8419;52.358;9.752;2023-02-28T08:46:33;6.37;;;3.20;;
16612;SDS011;8419;52.358;9.752;2023-02-28T08:49:19;3.47;;;2.70;;
16612;SDS011;8419;52.358;9.752;2023-02-28T08:52:05;6.60;;;2.90;;
16612;SDS011;8419;52.358;9.752;2023-02-28T08:54:51;6.53;;;3.87;;
16612;SDS011;8419;52.358;9.752;2023-02-28T08:57:36;6.73;;;3.73;;
16612;SDS011;8419;52.358;9.752;2023-02-28T09:00:23;6.97;;;3.00;;
16612;SDS011;8419;52.358;9.752;2023-02-28T09:03:09;4.33;;;2.53;;
16612;SDS011;8419;52.358;9.752;2023-02-28T09:05:56;3.43;;;2.37;;
16612;SDS011;8419;52.358;9.752;2023-02-28T09:08:43;6.03;;;2.53;;
16612;SDS011;8419;52.358;9.752;2023-02-28T09:11:30;4.00;;;2.30;;
16612;SDS011;8419;52.358;9.752;2023-02-28T09:14:18;5.27;;;2.57;;
16612;SDS011;8419;52.358;9.752;2023-02-28T09:17:03;7.37;;;2.60;;
16612;SDS011;8419;52.358;9.752;2023-02-28T09:19:50;2.77;;;2.10;;
16612;SDS011;8419;52.358;9.752;2023-02-28T09:22:35;6.23;;;2.47;;
16612;SDS011;8419;52.358;9.752;2023-02-28T09:25:21;3.10;;;2.47;;
16612;SDS011;8419;52.358;9.752;2023-02-28T09:28:07;4.20;;;2.00;;
16612;SDS011;8419;52.358;9.752;2023-02-28T09:30:53;5.23;;;2.00;;
16612;SDS011;8419;52.358;9.752;2023-02-28T09:33:39;2.10;;;1.87;;
16612;SDS011;8419;52.358;9.752;2023-02-28T09:36:27;4.50;;;2.27;;
16612;SDS011;8419;52.358;9.752;2023-02-28T09:39:14;3.93;;;1.90;;
16612;SDS011;8419;52.358;9.752;2023-02-28T09:41:59;3.40;;;2.30;;
16612;SDS011;8419;52.358;9.752;2023-02-28T09:44:47;2.33;;;1.93;;
16612;SDS011;8419;52.358;9.752;2023-02-28T09:47:35;3.07;;;1.70;;
16612;SDS011;8419;52.358;9.752;2023-02-28T09:50:29;3.00;;;1.43;;
16612;SDS011;8419;52.358;9.752;2023-02-28T09:53:21;2.53;;;1.50;;
16612;SDS011;8419;52.358;9.752;2023-02-28T09:56:11;3.30;;;1.73;;
16612;SDS011;8419;52.358;9.752;2023-02-28T09:59:05;3.10;;;1.77;;
16612;SDS011;8419;52.358;9.752;2023-02-28T10:02:03;2.73;;;1.90;;
16612;SDS011;8419;52.358;9.752;2023-02-28T10:04:58;1.70;;;1.40;;
16612;SDS011;8419;52.358;9.752;2023-02-28T10:07:52;7.07;;;1.60;;
16612;SDS011;8419;52.358;9.752;2023-02-28T10:10:48;3.73;;;1.70;;
16612;SDS011;8419;52.358;9.752;2023-02-28T10:13:37;2.83;;;1.40;;
16612;SDS011;8419;52.358;9.752;2023-02-28T10:16:32;1.00;;;0.90;;
16612;SDS011;8419;52.358;9.752;2023-02-28T10:19:23;1.73;;;1.30;;
16612;SDS011;8419;52.358;9.752;2023-02-28T10:22:17;1.70;;;1.27;;
16612;SDS011;8419;52.358;9.752;2023-02-28T10:25:15;3.80;;;1.27;;
16612;SDS011;8419;52.358;9.752;2023-02-28T10:28:09;2.03;;;1.03;;
16612;SDS011;8419;52.358;9.752;2023-02-28T10:30:56;3.00;;;1.10;;
16612;SDS011;8419;52.358;9.752;2023-02-28T10:33:43;1.50;;;0.90;;
16612;SDS011;8419;52.358;9.752;2023-02-28T10:36:29;2.73;;;1.30;;
16612;SDS011;8419;52.358;9.752;2023-02-28T10:42:22;1.70;;;1.10;;
16612;SDS011;8419;52.358;9.752;2023-02-28T10:45:12;1.90;;;1.10;;
16612;SDS011;8419;52.358;9.752;2023-02-28T10:48:01;2.17;;;0.90;;
16612;SDS011;8419;52.358;9.752;2023-02-28T10:50:53;3.17;;;1.27;;
16612;SDS011;8419;52.358;9.752;2023-02-28T10:53:45;1.30;;;1.10;;
16612;SDS011;8419;52.358;9.752;2023-02-28T10:56:34;2.53;;;0.90;;
16612;SDS011;8419;52.358;9.752;2023-02-28T10:59:26;2.85;;;1.40;;
16612;SDS011;8419;52.358;9.752;2023-02-28T11:02:31;2.53;;;1.27;;
16612;SDS011;8419;52.358;9.752;2023-02-28T11:05:25;1.73;;;0.80;;
16612;SDS011;8419;52.358;9.752;2023-02-28T11:08:16;1.73;;;0.93;;
16612;SDS011;8419;52.358;9.752;2023-02-28T11:11:04;1.77;;;1.10;;
16612;SDS011;8419;52.358;9.752;2023-02-28T11:13:52;2.78;;;0.80;;
16612;SDS011;8419;52.358;9.752;2023-02-28T11:16:40;0.98;;;0.77;;
16612;SDS011;8419;52.358;9.752;2023-02-28T11:19:26;0.93;;;0.62;;
16612;SDS011;8419;52.358;9.752;2023-02-28T11:22:18;0.75;;;0.57;;
16612;SDS011;8419;52.358;9.752;2023-02-28T11:25:07;0.77;;;0.60;;
16612;SDS011;8419;52.358;9.752;2023-02-28T11:28:01;1.08;;;0.70;;
16612;SDS011;8419;52.358;9.752;2023-02-28T11:30:59;6.50;;;1.10;;
16612;SDS011;8419;52.358;9.752;2023-02-28T11:33:47;1.20;;;1.00;;
16612;SDS011;8419;52.358;9.752;2023-02-28T11:36:35;1.62;;;0.80;;
16612;SDS011;8419;52.358;9.752;2023-02-28T11:39:28;2.58;;;0.90;;
16612;SDS011;8419;52.358;9.752;2023-02-28T11:42:18;2.50;;;0.93;;
16612;SDS011;8419;52.358;9.752;2023-02-28T11:45:20;1.35;;;0.75;;
16612;SDS011;8419;52.358;9.752;2023-02-28T11:48:17;1.15;;;0.77;;
16612;SDS011;8419;52.358;9.752;2023-02-28T11:51:10;1.85;;;1.10;;
16612;SDS011;8419;52.358;9.752;2023-02-28T11:54:24;3.53;;;1.55;;
16612;SDS011;8419;52.358;9.752;2023-02-28T11:57:21;3.55;;;1.30;;
16612;SDS011;8419;52.358;9.752;2023-02-28T12:00:27;2.55;;;1.10;;
16612;SDS011;8419;52.358;9.752;2023-02-28T12:03:26;3.00;;;1.12;;
16612;SDS011;8419;52.358;9.752;2023-02-28T12:06:19;1.90;;;0.93;;
16612;SDS011;8419;52.358;9.752;2023-02-28T12:09:13;2.47;;;1.90;;
16612;SDS011;8419;52.358;9.752;2023-02-28T12:12:21;3.33;;;2.05;;
16612;SDS011;8419;52.358;9.752;2023-02-28T12:15:22;2.00;;;1.40;;
16612;SDS011;8419;52.358;9.752;2023-02-28T12:18:23;2.90;;;1.55;;
16612;SDS011;8419;52.358;9.752;2023-02-28T12:21:17;1.52;;;1.37;;
16612;SDS011;8419;52.358;9.752;2023-02-28T12:24:25;1.90;;;1.37;;
16612;SDS011;8419;52.358;9.752;2023-02-28T12:27:21;1.83;;;1.50;;
16612;SDS011;8419;52.358;9.752;2023-02-28T12:30:14;4.22;;;1.65;;
16612;SDS011;8419;52.358;9.752;2023-02-28T12:33:06;2.15;;;1.35;;
16612;SDS011;8419;52.358;9.752;2023-02-28T12:35:55;1.20;;;1.10;;
16612;SDS011;8419;52.358;9.752;2023-02-28T12:38:43;1.75;;;0.90;;
16612;SDS011;8419;52.358;9.752;2023-02-28T12:41:34;3.08;;;1.35;;
16612;SDS011;8419;52.358;9.752;2023-02-28T12:44:26;2.40;;;2.10;;
16612;SDS011;8419;52.358;9.752;2023-02-28T12:47:16;3.45;;;2.10;;
16612;SDS011;8419;52.358;9.752;2023-02-28T12:50:04;2.97;;;2.30;;
16612;SDS011;8419;52.358;9.752;2023-02-28T12:52:56;4.22;;;2.25;;
16612;SDS011;8419;52.358;9.752;2023-02-28T12:55:50;4.03;;;1.90;;
16612;SDS011;8419;52.358;9.752;2023-02-28T12:58:48;2.65;;;1.40;;
16612;SDS011;8419;52.358;9.752;2023-02-28T13:01:49;4.37;;;1.70;;
16612;SDS011;8419;52.358;9.752;2023-02-28T13:08:23;2.72;;;1.62;;
16612;SDS011;8419;52.358;9.752;2023-02-28T13:11:29;3.53;;;1.95;;
16612;SDS011;8419;52.358;9.752;2023-02-28T13:14:19;2.45;;;1.90;;
16612;SDS011;8419;52.358;9.752;2023-02-28T13:17:11;3.05;;;1.83;;
16612;SDS011;8419;52.358;9.752;2023-02-28T13:20:04;5.10;;;1.60;;
16612;SDS011;8419;52.358;9.752;2023-02-28T13:22:59;2.92;;;1.83;;
16612;SDS011;8419;52.358;9.752;2023-02-28T13:25:52;3.92;;;1.75;;
16612;SDS011;8419;52.358;9.752;2023-02-28T13:28:57;3.47;;;2.17;;
16612;SDS011;8419;52.358;9.752;2023-02-28T13:38:34;3.62;;;1.92;;
16612;SDS011;8419;52.358;9.752;2023-02-28T13:45:23;1.73;;;1.58;;
16612;SDS011;8419;52.358;9.752;2023-02-28T13:48:18;2.87;;;1.87;;
16612;SDS011;8419;52.358;9.752;2023-02-28T13:54:36;2.42;;;1.73;;
16612;SDS011;8419;52.358;9.752;2023-02-28T13:57:34;3.22;;;1.92;;
16612;SDS011;8419;52.358;9.752;2023-02-28T14:00:31;5.55;;;1.87;;
16612;SDS011;8419;52.358;9.752;2023-02-28T14:03:31;2.85;;;1.80;;
16612;SDS011;8419;52.358;9.752;2023-02-28T14:06:30;3.92;;;2.28;;
16612;SDS011;8419;52.358;9.752;2023-02-28T14:09:18;3.55;;;1.77;;
16612;SDS011;8419;52.358;9.752;2023-02-28T14:15:46;1.80;;;1.70;;
16612;SDS011;8419;52.358;9.752;2023-02-28T14:18:40;2.67;;;1.87;;
16612;SDS011;8419;52.358;9.752;2023-02-28T14:21:32;2.33;;;1.67;;
16612;SDS011;8419;52.358;9.752;2023-02-28T14:24:28;2.83;;;1.60;;
16612;SDS011;8419;52.358;9.752;2023-02-28T14:27:29;2.85;;;1.70;;
16612;SDS011;8419;52.358;9.752;2023-02-28T14:30:36;2.90;;;1.77;;
16612;SDS011;8419;52.358;9.752;2023-02-28T14:33:44;4.43;;;1.77;;
16612;SDS011;8419;52.358;9.752;2023-02-28T14:36:48;3.00;;;1.80;;
16612;SDS011;8419;52.358;9.752;2023-02-28T14:39:34;2.08;;;1.42;;
16612;SDS011;8419;52.358;9.752;2023-02-28T14:42:30;3.37;;;1.67;;
16612;SDS011;8419;52.358;9.752;2023-02-28T14:45:18;4.20;;;1.67;;
16612;SDS011;8419;52.358;9.752;2023-02-28T14:48:08;4.87;;;2.60;;
16612;SDS011;8419;52.358;9.752;2023-02-28T14:50:54;3.42;;;1.70;;
16612;SDS011;8419;52.358;9.752;2023-02-28T14:53:41;1.55;;;1.27;;
16612;SDS011;8419;52.358;9.752;2023-02-28T14:56:28;3.70;;;1.62;;
16612;SDS011;8419;52.358;9.752;2023-02-28T14:59:23;5.43;;;1.90;;
16612;SDS011;8419;52.358;9.752;2023-02-28T15:02:17;1.70;;;1.60;;
16612;SDS011;8419;52.358;9.752;2023-02-28T15:05:16;4.93;;;1.70;;
16612;SDS011;8419;52.358;9.752;2023-02-28T15:08:10;4.20;;;1.80;;
16612;SDS011;8419;52.358;9.752;2023-02-28T15:10:59;1.52;;;1.20;;
16612;SDS011;8419;52.358;9.752;2023-02-28T15:13:48;2.92;;;1.77;;
16612;SDS011;8419;52.358;9.752;2023-02-28T15:16:36;3.87;;;1.85;;
16612;SDS011;8419;52.358;9.752;2023-02-28T15:19:26;4.45;;;2.10;;
16612;SDS011;8419;52.358;9.752;2023-02-28T15:22:15;4.72;;;1.90;;
16612;SDS011;8419;52.358;9.752;2023-02-28T15:25:06;2.00;;;1.35;;
16612;SDS011;8419;52.358;9.752;2023-02-28T15:27:57;3.20;;;2.22;;
16612;SDS011;8419;52.358;9.752;2023-02-28T15:30:51;4.10;;;1.73;;
16612;SDS011;8419;52.358;9.752;2023-02-28T15:33:38;2.40;;;1.70;;
16612;SDS011;8419;52.358;9.752;2023-02-28T15:36:38;3.95;;;2.00;;
16612;SDS011;8419;52.358;9.752;2023-02-28T15:39:25;4.62;;;1.90;;
16612;SDS011;8419;52.358;9.752;2023-02-28T15:42:12;3.22;;;2.10;;
16612;SDS011;8419;52.358;9.752;2023-02-28T15:45:03;2.65;;;1.70;;
16612;SDS011;8419;52.358;9.752;2023-02-28T15:47:50;3.85;;;2.33;;
16612;SDS011;8419;52.358;9.752;2023-02-28T15:50:35;2.55;;;1.80;;
16612;SDS011;8419;52.358;9.752;2023-02-28T15:53:23;3.20;;;2.28;;
16612;SDS011;8419;52.358;9.752;2023-02-28T15:56:16;1.65;;;1.55;;
16612;SDS011;8419;52.358;9.752;2023-02-28T15:59:07;4.22;;;1.87;;
16612;SDS011;8419;52.358;9.752;2023-02-28T16:02:13;4.85;;;2.08;;
16612;SDS011;8419;52.358;9.752;2023-02-28T16:08:25;3.40;;;2.08;;
16612;SDS011;8419;52.358;9.752;2023-02-28T16:11:11;4.70;;;1.87;;
16612;SDS011;8419;52.358;9.752;2023-02-28T16:13:56;2.70;;;1.70;;
16612;SDS011;8419;52.358;9.752;2023-02-28T16:16:43;4.05;;;1.92;;
16612;SDS011;8419;52.358;9.752;2023-02-28T16:19:30;2.10;;;1.80;;
16612;SDS011;8419;52.358;9.752;2023-02-28T16:22:15;3.20;;;2.00;;
16612;SDS011;8419;52.358;9.752;2023-02-28T16:25:02;2.92;;;1.98;;
16612;SDS011;8419;52.358;9.752;2023-02-28T16:27:49;3.08;;;2.37;;
16612;SDS011;8419;52.358;9.752;2023-02-28T16:30:37;2.50;;;1.98;;
16612;SDS011;8419;52.358;9.752;2023-02-28T16:33:23;5.28;;;2.25;;
16612;SDS011;8419;52.358;9.752;2023-02-28T16:36:10;2.00;;;1.70;;
16612;SDS011;8419;52.358;9.752;2023-02-28T16:38:59;3.08;;;2.20;;
16612;SDS011;8419;52.358;9.752;2023-02-28T16:41:50;6.28;;;3.83;;
16612;SDS011;8419;52.358;9.752;2023-02-28T16:44:37;3.72;;;2.10;;
16612;SDS011;8419;52.358;9.752;2023-02-28T16:47:23;2.87;;;1.77;;
16612;SDS011;8419;52.358;9.752;2023-02-28T16:50:13;4.00;;;2.25;;
16612;SDS011;8419;52.358;9.752;2023-02-28T16:53:00;9.05;;;5.28;;
16612;SDS011;8419;52.358;9.752;2023-02-28T16:55:46;4.78;;;2.28;;
16612;SDS011;8419;52.358;9.752;2023-02-28T16:58:31;5.43;;;2.58;;
16612;SDS011;8419;52.358;9.752;2023-02-28T17:01:19;4.10;;;2.05;;
16612;SDS011;8419;52.358;9.752;2023-02-28T17:04:08;3.05;;;2.15;;
16612;SDS011;8419;52.358;9.752;2023-02-28T17:06:58;3.97;;;2.20;;
16612;SDS011;8419;52.358;9.752;2023-02-28T17:09:46;3.20;;;1.98;;
16612;SDS011;8419;52.358;9.752;2023-02-28T17:12:31;3.97;;;2.50;;
16612;SDS011;8419;52.358;9.752;2023-02-28T17:15:17;3.40;;;2.30;;
16612;SDS011;8419;52.358;9.752;2023-02-28T17:18:05;5.50;;;2.25;;
16612;SDS011;8419;52.358;9.752;2023-02-28T17:20:50;3.12;;;2.22;;
16612;SDS011;8419;52.358;9.752;2023-02-28T17:23:36;6.37;;;2.72;;
16612;SDS011;8419;52.358;9.752;2023-02-28T17:26:22;5.55;;;3.08;;
16612;SDS011;8419;52.358;9.752;2023-02-28T17:29:13;4.60;;;3.00;;
16612;SDS011;8419;52.358;9.752;2023-02-28T17:32:01;4.00;;;2.60;;
16612;SDS011;8419;52.358;9.752;2023-02-28T17:34:47;5.62;;;2.78;;
16612;SDS011;8419;52.358;9.752;2023-02-28T17:37:32;4.85;;;2.55;;
16612;SDS011;8419;52.358;9.752;2023-02-28T17:40:19;6.03;;;2.90;;
16612;SDS011;8419;52.358;9.752;2023-02-28T17:43:06;5.17;;;2.63;;
16612;SDS011;8419;52.358;9.752;2023-02-28T17:45:51;3.95;;;2.42;;
16612;SDS011;8419;52.358;9.752;2023-02-28T17:48:37;3.58;;;2.50;;
16612;SDS011;8419;52.358;9.752;2023-02-28T17:51:23;5.82;;;3.08;;
16612;SDS011;8419;52.358;9.752;2023-02-28T17:54:08;3.30;;;2.40;;